Aérodrome :
LOGIN :

S'inscrire | Disclaimer

   EN    FR    IT 

 










Légende :    VFR   VFR Marginal   IFR   IFR Intensif   IFR Très Intensif
Visi : 
Plafond : 
>= 8 km
>= 3000ft
5 à 8 km
1000 à 3000 ft
1500m à 5 km
500 à 1000 ft
800 à 1500m
200 à 500 ft
< 800m
< 200 ft
Symboles :   Orages  Brouillard  Fortes neiges  Fortes précipitations  Vent > 20 kt
SIGMETs :   Divers  Orages  Givrage  Turbulence  Onde Orograph.  Cendres Volcan.






- Altitude de l'aérodrome : 348 ft
- Code IATA : STN


EGSS - London Stansted

DERNIER METAR :
  • 280850Z AUTO 32009KT 9999 NCD M01/M04 Q1005

METARs EXPIRÉS :
  • 280820Z AUTO 31008KT 280V350 9999 FEW027 M01/M04 Q1005
  • 280750Z AUTO 32011KT 9999 NCD M01/M04 Q1005
  • 280720Z AUTO 32010KT 290V350 9999 NCD M01/M03 Q1005
  • 280650Z AUTO 32011KT 9999 BKN016 M01/M03 Q1005
  • 280620Z AUTO 32010KT 9999 SCT019 M00/M03 Q1004

TAF TAF EGSS
Valide du 28 à 06h jusqu'au 29 à 12h UTC


280500Z 2806/2912 32014KT 9999 SCT012 BKN018
TEMPO 2806/2808 34018G28KT 8000 -RA BKN012
PROB40
TEMPO 2808/2813 BKN012
PROB30
TEMPO 2816/2906 4000 RASN BKN008
BECMG 2821/2824 31004KT
ATIS : +44 1279 669 325



MET'MAP, la Météo Aéronautique d'un coup d'oeil ! - Copyright ORBIFLY Décembre 2007 - Disclaimer

ORBIFLY MET'MAP TEAM :

Programmation & Développement : Alexandra Zaïnal
Sur une idée originale de : Baudouin d'Aumeries
Assistance à la programmation : Marc-Olivier Méhu
Soutien technique & logistique : Manuel Goepfert

Contact : metmap@orbifly.com




SOURCES & CREDITS :

   NOAA